createdAt,value
2022-12-23T00:01:13.413Z,81.20
2022-12-23T00:03:40.510Z,81.19
2022-12-23T00:06:13.572Z,81.15
2022-12-23T00:08:41.749Z,80.99
2022-12-23T00:11:15.991Z,80.96
2022-12-23T00:14:02.983Z,80.87
2022-12-23T00:16:30.554Z,80.77
2022-12-23T00:18:57.740Z,80.68
2022-12-23T00:21:24.654Z,80.72
2022-12-23T00:23:51.747Z,80.70
2022-12-23T00:26:25.716Z,80.83
2022-12-23T00:28:56.314Z,80.92
2022-12-23T00:31:24.648Z,80.98
2022-12-23T00:33:53.734Z,81.08
2022-12-23T00:36:29.892Z,81.12
2022-12-23T00:39:17.250Z,81.08
2022-12-23T00:42:03.806Z,81.03
2022-12-23T00:44:30.962Z,81.03
2022-12-23T00:46:57.887Z,81.04
2022-12-23T00:49:42.851Z,81.06
2022-12-23T00:52:15.244Z,81.10
2022-12-23T00:54:42.303Z,81.08
2022-12-23T00:57:09.453Z,81.09
2022-12-23T00:59:36.390Z,81.09
2022-12-23T01:02:22.586Z,81.10
2022-12-23T01:05:07.883Z,81.06
2022-12-23T01:07:34.747Z,80.99
2022-12-23T01:10:01.788Z,81.07
2022-12-23T01:12:29.084Z,81.02
2022-12-23T01:14:56.187Z,80.87
2022-12-23T01:17:23.754Z,80.79
2022-12-23T01:19:51.139Z,80.69
2022-12-23T01:22:18.249Z,80.62
2022-12-23T01:24:45.413Z,80.53
2022-12-23T01:27:12.485Z,80.37
2022-12-23T01:29:39.499Z,80.38
2022-12-23T01:32:06.639Z,80.25
2022-12-23T01:34:37.392Z,80.37
2022-12-23T01:37:06.576Z,80.29
2022-12-23T01:39:33.658Z,80.28
2022-12-23T01:42:19.352Z,80.23
2022-12-23T01:45:02.543Z,79.95
2022-12-23T01:47:55.193Z,80.04
2022-12-23T01:50:34.922Z,80.00
2022-12-23T01:53:21.357Z,80.02
2022-12-23T01:55:58.781Z,80.02
2022-12-23T01:58:31.422Z,79.98
2022-12-23T02:01:17.921Z,79.84
2022-12-23T02:03:47.421Z,79.48
2022-12-23T02:06:45.681Z,79.68
2022-12-23T02:09:19.623Z,79.47
2022-12-23T02:12:01.681Z,79.50
2022-12-23T02:15:08.345Z,79.87
2022-12-23T02:18:02.465Z,79.76
2022-12-23T02:21:02.363Z,79.59
2022-12-23T02:24:00.164Z,79.61
2022-12-23T02:27:04.411Z,79.62
2022-12-23T02:29:56.197Z,79.64
2022-12-23T02:32:39.185Z,79.63
2022-12-23T02:35:43.340Z,79.54
2022-12-23T02:38:16.430Z,79.47
2022-12-23T02:41:08.102Z,79.21
2022-12-23T02:43:55.680Z,79.39
2022-12-23T02:46:33.414Z,79.51
2022-12-23T02:49:12.777Z,79.34
2022-12-23T02:51:44.133Z,79.20
2022-12-23T02:54:17.054Z,79.19
2022-12-23T02:56:49.696Z,79.12
2022-12-23T02:59:25.251Z,79.12
2022-12-23T03:01:55.244Z,79.08
2022-12-23T03:04:23.555Z,79.04
2022-12-23T03:06:55.387Z,79.04
2022-12-23T03:09:45.607Z,79.03
2022-12-23T03:12:53.996Z,78.96
2022-12-23T03:15:51.583Z,78.79
2022-12-23T03:18:28.256Z,78.60
2022-12-23T03:21:20.805Z,78.43
2022-12-23T03:23:55.946Z,78.44
2022-12-23T03:26:30.744Z,78.33
2022-12-23T03:29:43.249Z,78.31
2022-12-23T03:32:13.868Z,78.35
2022-12-23T03:34:46.019Z,78.39
2022-12-23T03:37:15.669Z,78.40
2022-12-23T03:39:51.928Z,78.42
2022-12-23T03:42:40.306Z,78.47
2022-12-23T03:45:38.207Z,78.39
2022-12-23T03:48:14.812Z,78.35
2022-12-23T03:50:43.732Z,78.34
2022-12-23T03:53:17.051Z,78.20
2022-12-23T03:55:51.082Z,78.12
2022-12-23T03:58:21.485Z,78.08
2022-12-23T04:00:58.692Z,78.06
2022-12-23T04:03:45.236Z,78.06
2022-12-23T04:06:17.094Z,78.11
2022-12-23T04:08:46.086Z,78.25
2022-12-23T04:11:14.008Z,78.51
2022-12-23T04:13:41.176Z,78.58
2022-12-23T04:16:08.282Z,78.63
2022-12-23T04:18:35.186Z,78.84
2022-12-23T04:21:01.965Z,78.62
2022-12-23T04:23:28.771Z,78.49
2022-12-23T04:25:55.707Z,78.68
2022-12-23T04:28:22.502Z,78.87
2022-12-23T04:30:49.410Z,78.91
2022-12-23T04:33:16.310Z,79.22
2022-12-23T04:35:43.269Z,79.44
2022-12-23T04:38:10.172Z,79.04
2022-12-23T04:40:38.189Z,78.67
2022-12-23T04:43:05.223Z,78.45
2022-12-23T04:45:32.582Z,78.35
2022-12-23T04:47:59.416Z,78.38
2022-12-23T04:50:26.266Z,78.30
2022-12-23T04:52:53.131Z,78.50
2022-12-23T04:55:20.268Z,78.71
2022-12-23T04:57:47.372Z,79.02
2022-12-23T05:00:15.083Z,79.27
2022-12-23T05:02:42.111Z,79.69
2022-12-23T05:05:09.178Z,80.04
2022-12-23T05:07:36.087Z,80.38
2022-12-23T05:10:03.427Z,80.72
2022-12-23T05:12:31.590Z,80.85
2022-12-23T05:14:58.592Z,80.98
2022-12-23T05:17:25.621Z,80.99
2022-12-23T05:19:52.431Z,80.99
2022-12-23T05:22:19.257Z,81.03
2022-12-23T05:24:46.533Z,81.04
2022-12-23T05:27:13.567Z,81.05
2022-12-23T05:29:40.473Z,81.09
2022-12-23T05:32:07.650Z,81.02
2022-12-23T05:34:34.591Z,81.01
2022-12-23T05:37:01.476Z,81.02
2022-12-23T05:39:28.460Z,81.02
2022-12-23T05:41:55.343Z,80.99
2022-12-23T05:44:22.272Z,81.03
2022-12-23T05:46:49.344Z,81.10
2022-12-23T05:49:16.322Z,81.09
2022-12-23T05:51:43.364Z,81.16
2022-12-23T05:54:10.231Z,81.20
2022-12-23T05:56:37.271Z,81.21
2022-12-23T05:59:04.273Z,81.20
2022-12-23T06:01:31.047Z,81.25
2022-12-23T06:03:58.037Z,81.21
2022-12-23T06:06:25.080Z,81.24
2022-12-23T06:08:59.120Z,81.32
2022-12-23T06:11:27.947Z,81.40
2022-12-23T06:13:56.350Z,81.54
2022-12-23T06:16:23.904Z,81.63
2022-12-23T06:18:55.427Z,81.74
2022-12-23T06:21:22.565Z,81.88
2022-12-23T06:23:49.476Z,82.00
2022-12-23T06:26:16.363Z,82.10
2022-12-23T06:28:43.424Z,82.23
2022-12-23T06:31:10.513Z,82.28
2022-12-23T06:33:37.433Z,82.29
2022-12-23T06:36:05.012Z,82.30
2022-12-23T06:38:31.811Z,82.36
2022-12-23T06:40:58.841Z,82.53
2022-12-23T06:43:25.676Z,82.66
2022-12-23T06:45:52.709Z,82.84
2022-12-23T06:48:19.990Z,83.04
2022-12-23T06:50:47.028Z,83.13
2022-12-23T06:53:14.711Z,83.19
2022-12-23T06:55:41.542Z,83.22
2022-12-23T06:58:08.641Z,83.24
2022-12-23T07:00:35.723Z,83.25
2022-12-23T07:03:03.678Z,83.31
2022-12-23T07:05:36.760Z,83.34
2022-12-23T07:08:05.664Z,83.41
2022-12-23T07:10:34.230Z,83.47
2022-12-23T07:13:01.301Z,83.54
2022-12-23T07:15:28.326Z,83.60
2022-12-23T07:17:55.255Z,83.65
2022-12-23T07:20:22.314Z,83.72
2022-12-23T07:22:52.630Z,83.80
2022-12-23T07:25:19.644Z,83.84
2022-12-23T09:00:26.949Z,82.55
2022-12-23T09:02:54.834Z,82.31
2022-12-23T09:05:22.287Z,82.13
2022-12-23T09:07:49.422Z,81.99
2022-12-23T09:10:16.372Z,81.85
2022-12-23T09:12:43.515Z,81.72
2022-12-23T09:15:10.727Z,81.59
2022-12-23T09:17:38.525Z,81.48
2022-12-23T09:20:06.982Z,81.37
2022-12-23T09:22:34.633Z,81.30
2022-12-23T09:25:05.321Z,81.31
2022-12-23T09:27:32.944Z,83.50
2022-12-23T09:30:00.043Z,83.80
2022-12-23T09:32:28.158Z,81.38
2022-12-23T09:34:57.867Z,78.27
2022-12-23T09:37:25.059Z,75.77
2022-12-23T09:39:52.005Z,72.76
2022-12-23T09:42:41.839Z,72.13
2022-12-23T09:45:27.627Z,71.70
2022-12-23T09:47:56.303Z,70.50
2022-12-23T09:50:29.569Z,69.14
2022-12-23T09:53:13.261Z,68.19
2022-12-23T09:55:50.644Z,68.21
2022-12-23T09:58:36.824Z,66.17
2022-12-23T10:01:13.399Z,65.64
2022-12-23T10:03:58.617Z,67.06
2022-12-23T10:06:28.802Z,65.81
2022-12-23T10:09:02.296Z,68.17
2022-12-23T10:11:33.846Z,66.65
2022-12-23T10:14:14.114Z,64.92
2022-12-23T10:16:45.553Z,64.73
2022-12-23T10:19:23.175Z,64.28
2022-12-23T10:21:55.733Z,62.83
2022-12-23T10:24:26.073Z,62.41
2022-12-23T10:26:56.084Z,63.45
2022-12-23T10:29:26.101Z,64.38
2022-12-23T10:32:14.923Z,61.23
2022-12-23T10:34:52.141Z,61.75
2022-12-23T10:37:36.384Z,58.84
2022-12-23T10:40:19.407Z,57.16
2022-12-23T10:42:57.438Z,60.89
2022-12-23T10:46:02.348Z,64.69
2022-12-23T10:49:23.671Z,65.26
2022-12-23T10:51:54.411Z,65.22
2022-12-23T10:54:32.303Z,64.61
2022-12-23T10:57:01.160Z,62.70
2022-12-23T10:59:32.736Z,62.58
2022-12-23T11:02:11.956Z,62.23
2022-12-23T11:04:46.919Z,62.17
2022-12-23T11:07:43.284Z,61.80
2022-12-23T11:10:16.640Z,61.89
2022-12-23T11:12:50.519Z,62.12
2022-12-23T11:15:30.196Z,62.20
2022-12-23T11:18:20.759Z,61.79
2022-12-23T11:21:06.715Z,61.65
2022-12-23T11:23:36.503Z,61.64
2022-12-23T11:26:07.366Z,61.61
2022-12-23T11:28:39.807Z,61.85
2022-12-23T11:31:11.515Z,61.89
2022-12-23T11:33:45.550Z,62.23
2022-12-23T11:36:12.672Z,62.24
2022-12-23T11:39:01.477Z,62.43
2022-12-23T11:41:34.530Z,62.41
2022-12-23T11:44:09.046Z,62.35
2022-12-23T11:46:36.251Z,62.09
2022-12-23T11:49:18.664Z,62.70
2022-12-23T11:52:09.678Z,62.84
2022-12-23T11:54:37.646Z,62.84
2022-12-23T11:57:15.365Z,63.37
2022-12-23T11:59:54.668Z,63.66
2022-12-23T12:02:34.734Z,62.86
2022-12-23T12:05:08.423Z,62.51
2022-12-23T12:07:36.005Z,63.66
2022-12-23T12:10:05.476Z,63.00
2022-12-23T12:12:33.271Z,64.38
2022-12-23T12:15:00.363Z,64.66
2022-12-23T12:17:27.262Z,64.72
2022-12-23T12:20:26.749Z,64.49
2022-12-23T12:23:00.863Z,63.75
2022-12-23T12:25:48.506Z,64.96
2022-12-23T12:28:36.856Z,65.86
2022-12-23T12:31:32.288Z,66.70
2022-12-23T12:34:16.518Z,67.57
2022-12-23T12:36:56.076Z,66.97
2022-12-23T12:39:48.692Z,66.59
2022-12-23T12:42:19.254Z,66.39
2022-12-23T12:44:46.207Z,66.23
2022-12-23T12:47:52.042Z,66.06
2022-12-23T12:50:18.267Z,65.94
2022-12-23T12:52:51.312Z,65.80
2022-12-23T12:55:27.821Z,66.49
2022-12-23T12:57:56.654Z,67.92
2022-12-23T13:00:24.890Z,68.62
2022-12-23T13:03:17.624Z,69.42
2022-12-23T13:05:54.072Z,69.88
2022-12-23T13:08:24.521Z,70.55
2022-12-23T13:11:16.040Z,70.87
2022-12-23T13:13:50.081Z,70.23
2022-12-23T13:16:29.819Z,71.03
2022-12-23T13:19:13.160Z,71.53
2022-12-23T13:21:49.888Z,71.69
2022-12-23T13:24:37.404Z,71.67
2022-12-23T13:27:14.038Z,72.05
2022-12-23T13:30:00.831Z,72.64
2022-12-23T13:32:38.723Z,73.07
2022-12-23T13:35:09.133Z,72.93
2022-12-23T13:37:52.851Z,72.71
2022-12-23T13:40:43.980Z,72.90
2022-12-23T13:43:24.753Z,73.12
2022-12-23T13:45:55.630Z,73.20
2022-12-23T13:49:19.160Z,73.35
2022-12-23T13:52:09.775Z,72.75
2022-12-23T13:54:59.202Z,73.00
2022-12-23T13:57:56.328Z,73.10
2022-12-23T14:00:32.174Z,73.08
2022-12-23T14:02:59.905Z,73.30
2022-12-23T14:05:50.438Z,73.20
2022-12-23T14:08:18.573Z,73.22
2022-12-23T14:11:15.409Z,73.62
2022-12-23T14:13:51.720Z,73.53
2022-12-23T14:16:32.370Z,73.86
2022-12-23T14:19:42.222Z,74.09
2022-12-23T14:22:12.824Z,74.04
2022-12-23T14:24:59.244Z,74.29
2022-12-23T14:27:58.665Z,74.12
2022-12-23T14:30:44.720Z,74.40
2022-12-23T14:33:23.959Z,74.45
2022-12-23T14:36:16.860Z,74.55
2022-12-23T14:39:13.799Z,74.39
2022-12-23T14:41:51.619Z,74.37
2022-12-23T14:44:37.789Z,74.67
2022-12-23T14:47:46.158Z,74.65
2022-12-23T14:50:33.288Z,74.25
2022-12-23T14:53:26.259Z,74.29
2022-12-23T14:56:18.462Z,74.55
2022-12-23T14:59:03.446Z,74.52
2022-12-23T15:01:56.897Z,74.86
2022-12-23T15:04:50.320Z,74.82
2022-12-23T15:07:33.801Z,75.07
2022-12-23T15:10:16.688Z,75.28
2022-12-23T15:12:56.941Z,75.43
2022-12-23T15:15:29.711Z,75.79
2022-12-23T15:18:03.347Z,75.83
2022-12-23T15:20:33.515Z,75.88
2022-12-23T15:23:10.115Z,76.11
2022-12-23T15:25:47.129Z,76.21
2022-12-23T15:28:22.871Z,76.33
2022-12-23T15:30:57.546Z,76.39
2022-12-23T15:36:35.934Z,76.25
2022-12-23T15:39:34.409Z,76.38
2022-12-23T15:42:04.961Z,76.30
2022-12-23T15:44:39.881Z,76.63
2022-12-23T15:47:32.396Z,76.62
2022-12-23T15:50:04.216Z,76.58
2022-12-23T15:52:40.862Z,76.71
2022-12-23T15:55:32.996Z,76.63
2022-12-23T15:58:06.018Z,76.71
2022-12-23T16:00:44.934Z,76.81
2022-12-23T16:03:39.150Z,76.78
2022-12-23T16:06:17.353Z,76.65
2022-12-23T16:09:19.342Z,76.70
2022-12-23T16:11:56.886Z,76.72
2022-12-23T16:14:32.498Z,76.88
2022-12-23T16:17:02.952Z,76.90
2022-12-23T16:19:43.609Z,76.99
2022-12-23T16:22:30.557Z,77.00
2022-12-23T16:25:02.861Z,77.10
2022-12-23T16:27:47.043Z,77.24
2022-12-23T16:30:43.854Z,77.29
2022-12-23T16:33:26.648Z,77.29
2022-12-23T16:36:00.116Z,77.38
2022-12-23T16:38:31.361Z,77.59
2022-12-23T16:41:02.351Z,77.73
2022-12-23T16:43:31.791Z,77.69
2022-12-23T16:46:02.605Z,77.81
2022-12-23T16:48:39.258Z,77.96
2022-12-23T16:51:20.518Z,77.78
2022-12-23T16:53:56.820Z,77.82
2022-12-23T16:56:35.166Z,77.81
2022-12-23T16:59:09.021Z,77.59
2022-12-23T17:01:45.547Z,77.44
2022-12-23T17:04:17.995Z,77.44
2022-12-23T17:06:49.307Z,77.43
2022-12-23T17:09:24.238Z,77.43
2022-12-23T17:12:01.400Z,77.30
2022-12-23T17:14:35.088Z,77.23
2022-12-23T17:17:16.134Z,77.22
2022-12-23T17:19:47.262Z,77.19
2022-12-23T17:22:20.496Z,77.18
2022-12-23T17:24:50.749Z,77.19
2022-12-23T17:27:20.453Z,77.34
2022-12-23T17:29:48.356Z,77.20
2022-12-23T17:32:18.853Z,77.24
2022-12-23T17:34:46.815Z,77.30
2022-12-23T17:37:19.705Z,77.32
2022-12-23T17:39:49.023Z,77.48
2022-12-23T17:42:24.908Z,77.53
2022-12-23T17:44:54.011Z,77.72
2022-12-23T17:47:22.330Z,77.89
2022-12-23T17:49:50.287Z,77.96
2022-12-23T17:52:21.521Z,77.94
2022-12-23T17:54:52.213Z,77.81
2022-12-23T17:57:26.608Z,77.72
2022-12-23T17:59:57.042Z,77.78
2022-12-23T18:02:35.001Z,77.73
2022-12-23T18:05:26.138Z,77.59
2022-12-23T18:07:55.695Z,77.55
2022-12-23T18:10:27.296Z,77.54
2022-12-23T18:12:59.432Z,77.42
2022-12-23T18:15:41.539Z,77.35
2022-12-23T18:18:15.866Z,77.20
2022-12-23T18:20:49.939Z,76.96
2022-12-23T18:23:26.338Z,76.87
2022-12-23T18:25:56.368Z,77.28
2022-12-23T18:28:25.821Z,81.33
2022-12-23T18:30:57.158Z,78.60
2022-12-23T18:33:28.465Z,76.97
2022-12-23T18:35:56.934Z,72.89
2022-12-23T18:38:25.857Z,71.14
2022-12-23T18:40:56.191Z,71.25
2022-12-23T18:43:25.487Z,68.25
2022-12-23T18:45:54.464Z,68.39
2022-12-23T18:48:23.104Z,67.82
2022-12-23T18:50:50.833Z,68.08
2022-12-23T18:53:25.160Z,69.47
2022-12-23T18:55:55.383Z,69.58
2022-12-23T18:58:25.773Z,68.26
2022-12-23T19:00:53.700Z,68.73
2022-12-23T19:03:25.602Z,73.35
2022-12-23T19:05:54.852Z,69.93
2022-12-23T19:08:27.722Z,65.68
2022-12-23T19:10:56.346Z,64.93
2022-12-23T19:13:23.942Z,65.15
2022-12-23T19:15:52.149Z,64.65
2022-12-23T19:18:21.443Z,64.22
2022-12-23T19:20:51.740Z,64.51
2022-12-23T19:23:19.030Z,64.85
2022-12-23T19:25:54.572Z,65.94
2022-12-23T19:28:24.188Z,66.49
2022-12-23T19:30:51.562Z,67.37
2022-12-23T19:33:18.920Z,67.72
2022-12-23T19:35:47.037Z,68.00
2022-12-23T19:38:14.185Z,68.56
2022-12-23T19:40:41.650Z,68.79
2022-12-23T19:43:09.694Z,69.08
2022-12-23T19:45:36.501Z,69.32
2022-12-23T19:48:04.420Z,69.63
2022-12-23T19:50:32.703Z,70.01
2022-12-23T19:52:59.957Z,70.16
2022-12-23T19:55:27.080Z,70.36
2022-12-23T19:57:54.237Z,70.74
2022-12-23T20:00:21.737Z,71.06
2022-12-23T20:02:52.448Z,71.39
2022-12-23T20:05:23.982Z,71.71
2022-12-23T20:07:51.526Z,71.92
2022-12-23T20:10:19.085Z,72.28
2022-12-23T20:12:46.861Z,72.49
2022-12-23T20:15:15.137Z,72.83
2022-12-23T20:17:43.170Z,73.19
2022-12-23T20:20:10.574Z,73.52
2022-12-23T20:22:37.644Z,73.69
2022-12-23T20:25:05.238Z,73.93
2022-12-23T20:27:32.438Z,74.56
2022-12-23T20:29:59.570Z,74.45
2022-12-23T20:32:27.453Z,74.35
2022-12-23T20:34:54.604Z,74.35
2022-12-23T20:37:21.637Z,74.44
2022-12-23T20:39:48.694Z,74.83
2022-12-23T20:42:16.215Z,74.99
2022-12-23T20:44:44.476Z,75.00
2022-12-23T20:47:12.174Z,75.07
2022-12-23T20:49:40.276Z,75.13
2022-12-23T20:52:07.509Z,75.18
2022-12-23T20:54:35.390Z,75.25
2022-12-23T20:57:03.501Z,75.38
2022-12-23T20:59:31.035Z,75.48
2022-12-23T21:01:59.220Z,75.66
2022-12-23T21:04:26.856Z,75.64
2022-12-23T21:06:54.316Z,75.74
2022-12-23T21:09:21.975Z,75.78
2022-12-23T21:11:49.346Z,75.91
2022-12-23T21:14:17.706Z,76.05
2022-12-23T21:16:45.554Z,76.13
2022-12-23T21:19:18.673Z,76.30
2022-12-23T21:21:46.941Z,76.57
2022-12-23T21:24:16.038Z,76.67
2022-12-23T21:26:43.769Z,76.62
2022-12-23T21:29:13.233Z,76.73
2022-12-23T21:31:41.892Z,76.83
2022-12-23T21:34:13.809Z,76.99
2022-12-23T21:36:42.504Z,77.11
2022-12-23T21:39:14.061Z,77.19
2022-12-23T21:41:41.920Z,77.47
2022-12-23T21:44:13.036Z,77.67
2022-12-23T21:46:40.307Z,77.75
2022-12-23T21:49:09.873Z,77.92
2022-12-23T21:51:40.782Z,77.98
2022-12-23T21:54:11.162Z,78.03
2022-12-23T21:56:39.508Z,78.16
2022-12-23T21:59:11.301Z,78.20
2022-12-23T22:01:39.107Z,78.26
2022-12-23T22:04:06.682Z,78.30
2022-12-23T22:06:37.004Z,78.47
2022-12-23T22:09:06.354Z,78.77
2022-12-23T22:11:35.728Z,78.69
2022-12-23T22:14:06.082Z,78.87
2022-12-23T22:16:34.951Z,78.96
2022-12-23T22:19:04.942Z,79.05
2022-12-23T22:21:33.982Z,78.99
2022-12-23T22:24:01.744Z,79.26
2022-12-23T22:26:31.363Z,79.40
2022-12-23T22:29:01.361Z,79.37
2022-12-23T22:31:34.859Z,79.41
2022-12-23T22:34:04.275Z,79.53
2022-12-23T22:36:32.089Z,80.12
2022-12-23T22:39:00.424Z,79.95
2022-12-23T22:41:28.999Z,80.15
2022-12-23T22:43:56.665Z,80.06
2022-12-23T22:46:24.134Z,80.08
2022-12-23T22:48:52.746Z,80.11
2022-12-23T22:51:23.532Z,80.32
2022-12-23T22:53:50.776Z,80.19
2022-12-23T22:56:19.594Z,80.36
2022-12-23T22:58:47.655Z,80.57
2022-12-23T23:01:21.854Z,80.73
2022-12-23T23:03:56.420Z,80.93
2022-12-23T23:06:37.424Z,81.50
2022-12-23T23:09:06.599Z,83.20
2022-12-23T23:11:33.896Z,81.88
2022-12-23T23:14:01.554Z,81.13
2022-12-23T23:16:28.900Z,80.19
2022-12-23T23:18:57.271Z,79.65
2022-12-23T23:21:24.140Z,79.32
2022-12-23T23:23:51.568Z,79.18
2022-12-23T23:26:20.137Z,79.11
2022-12-23T23:28:48.248Z,79.09
2022-12-23T23:34:02.145Z,79.03
2022-12-23T23:36:29.275Z,79.14
2022-12-23T23:38:56.439Z,79.16
2022-12-23T23:41:24.257Z,80.66
2022-12-23T23:43:51.702Z,81.69
2022-12-23T23:46:19.091Z,79.48
2022-12-23T23:48:47.176Z,78.32
2022-12-23T23:51:14.145Z,78.11
2022-12-23T23:53:41.078Z,77.98
2022-12-23T23:56:08.721Z,77.96
2022-12-23T23:58:36.903Z,78.03
